sensor_id;sensor_type;location;lat;lon;timestamp;P1;durP1;ratioP1;P2;durP2;ratioP2
35675;SDS011;21790;42.668;23.298;2022-11-14T00:02:20;32.33;;;13.10;;
35675;SDS011;21790;42.668;23.298;2022-11-14T00:12:59;35.40;;;14.60;;
35675;SDS011;21790;42.668;23.298;2022-11-14T00:18:48;43.15;;;19.10;;
35675;SDS011;21790;42.668;23.298;2022-11-14T00:24:36;31.92;;;14.32;;
35675;SDS011;21790;42.668;23.298;2022-11-14T00:34:55;39.40;;;17.00;;
35675;SDS011;21790;42.668;23.298;2022-11-14T00:37:22;45.00;;;16.77;;
35675;SDS011;21790;42.668;23.298;2022-11-14T00:39:48;38.03;;;16.50;;
35675;SDS011;21790;42.668;23.298;2022-11-14T00:44:49;42.30;;;15.95;;
35675;SDS011;21790;42.668;23.298;2022-11-14T00:47:26;37.63;;;15.13;;
35675;SDS011;21790;42.668;23.298;2022-11-14T00:49:52;40.28;;;15.15;;
35675;SDS011;21790;42.668;23.298;2022-11-14T00:52:26;34.53;;;15.60;;
35675;SDS011;21790;42.668;23.298;2022-11-14T00:54:56;38.38;;;16.15;;
35675;SDS011;21790;42.668;23.298;2022-11-14T00:57:24;37.65;;;15.15;;
35675;SDS011;21790;42.668;23.298;2022-11-14T00:59:51;36.30;;;16.52;;
35675;SDS011;21790;42.668;23.298;2022-11-14T01:08:13;49.28;;;20.05;;
35675;SDS011;21790;42.668;23.298;2022-11-14T01:58:39;33.97;;;15.43;;
35675;SDS011;21790;42.668;23.298;2022-11-14T02:01:26;39.10;;;16.45;;
35675;SDS011;21790;42.668;23.298;2022-11-14T02:03:55;40.30;;;16.65;;
35675;SDS011;21790;42.668;23.298;2022-11-14T02:12:06;36.28;;;16.02;;
35675;SDS011;21790;42.668;23.298;2022-11-14T02:17:24;42.70;;;16.70;;
35675;SDS011;21790;42.668;23.298;2022-11-14T02:46:01;54.67;;;23.88;;
35675;SDS011;21790;42.668;23.298;2022-11-14T02:54:17;66.47;;;27.70;;
35675;SDS011;21790;42.668;23.298;2022-11-14T03:00:19;49.25;;;21.33;;
35675;SDS011;21790;42.668;23.298;2022-11-14T03:09:28;48.97;;;20.77;;
35675;SDS011;21790;42.668;23.298;2022-11-14T03:11:59;58.15;;;23.08;;
35675;SDS011;21790;42.668;23.298;2022-11-14T03:20:32;65.68;;;24.02;;
35675;SDS011;21790;42.668;23.298;2022-11-14T03:22:59;67.93;;;27.05;;
35675;SDS011;21790;42.668;23.298;2022-11-14T03:28:13;64.40;;;23.98;;
35675;SDS011;21790;42.668;23.298;2022-11-14T03:30:40;51.67;;;21.38;;
35675;SDS011;21790;42.668;23.298;2022-11-14T03:33:06;56.25;;;21.58;;
35675;SDS011;21790;42.668;23.298;2022-11-14T03:38:36;55.40;;;22.55;;
35675;SDS011;21790;42.668;23.298;2022-11-14T03:49:29;58.75;;;19.98;;
35675;SDS011;21790;42.668;23.298;2022-11-14T03:54:34;52.38;;;21.90;;
35675;SDS011;21790;42.668;23.298;2022-11-14T03:57:11;52.75;;;22.45;;
35675;SDS011;21790;42.668;23.298;2022-11-14T03:59:54;60.60;;;25.00;;
35675;SDS011;21790;42.668;23.298;2022-11-14T04:02:27;62.85;;;23.90;;
35675;SDS011;21790;42.668;23.298;2022-11-14T04:07:32;59.63;;;24.48;;
35675;SDS011;21790;42.668;23.298;2022-11-14T04:09:59;49.15;;;24.45;;
35675;SDS011;21790;42.668;23.298;2022-11-14T04:12:29;61.38;;;23.92;;
35675;SDS011;21790;42.668;23.298;2022-11-14T04:18:19;63.38;;;24.70;;
35675;SDS011;21790;42.668;23.298;2022-11-14T04:23:25;59.90;;;23.00;;
35675;SDS011;21790;42.668;23.298;2022-11-14T04:25:51;57.28;;;24.27;;
35675;SDS011;21790;42.668;23.298;2022-11-14T04:28:21;56.75;;;23.48;;
35675;SDS011;21790;42.668;23.298;2022-11-14T04:30:55;58.15;;;24.25;;
35675;SDS011;21790;42.668;23.298;2022-11-14T04:36:32;59.45;;;23.00;;
35675;SDS011;21790;42.668;23.298;2022-11-14T04:48:03;47.10;;;20.05;;
35675;SDS011;21790;42.668;23.298;2022-11-14T04:50:30;53.50;;;21.40;;
35675;SDS011;21790;42.668;23.298;2022-11-14T04:53:05;46.00;;;20.10;;
35675;SDS011;21790;42.668;23.298;2022-11-14T05:00:34;50.08;;;22.00;;
35675;SDS011;21790;42.668;23.298;2022-11-14T05:03:00;47.42;;;20.65;;
35675;SDS011;21790;42.668;23.298;2022-11-14T05:05:30;54.58;;;23.40;;
35675;SDS011;21790;42.668;23.298;2022-11-14T05:13:00;55.25;;;24.05;;
35675;SDS011;21790;42.668;23.298;2022-11-14T05:15:26;56.50;;;23.48;;
35675;SDS011;21790;42.668;23.298;2022-11-14T05:17:52;64.53;;;23.77;;
35675;SDS011;21790;42.668;23.298;2022-11-14T05:20:18;62.40;;;23.85;;
35675;SDS011;21790;42.668;23.298;2022-11-14T05:22:43;60.72;;;23.35;;
35675;SDS011;21790;42.668;23.298;2022-11-14T05:25:09;71.53;;;25.98;;
35675;SDS011;21790;42.668;23.298;2022-11-14T05:27:35;63.15;;;26.25;;
35675;SDS011;21790;42.668;23.298;2022-11-14T05:30:01;80.20;;;26.60;;
35675;SDS011;21790;42.668;23.298;2022-11-14T05:32:26;78.35;;;27.25;;
35675;SDS011;21790;42.668;23.298;2022-11-14T05:34:52;71.25;;;26.50;;
35675;SDS011;21790;42.668;23.298;2022-11-14T05:37:18;76.32;;;27.30;;
35675;SDS011;21790;42.668;23.298;2022-11-14T05:39:43;69.30;;;25.08;;
35675;SDS011;21790;42.668;23.298;2022-11-14T05:42:09;64.90;;;25.65;;
35675;SDS011;21790;42.668;23.298;2022-11-14T05:44:35;68.10;;;26.20;;
35675;SDS011;21790;42.668;23.298;2022-11-14T05:47:01;66.43;;;26.20;;
35675;SDS011;21790;42.668;23.298;2022-11-14T05:49:26;77.13;;;26.70;;
35675;SDS011;21790;42.668;23.298;2022-11-14T05:51:53;69.05;;;23.15;;
35675;SDS011;21790;42.668;23.298;2022-11-14T05:54:18;73.63;;;24.45;;
35675;SDS011;21790;42.668;23.298;2022-11-14T05:56:44;65.97;;;23.92;;
35675;SDS011;21790;42.668;23.298;2022-11-14T05:59:10;68.32;;;24.10;;
35675;SDS011;21790;42.668;23.298;2022-11-14T06:01:35;67.43;;;25.45;;
35675;SDS011;21790;42.668;23.298;2022-11-14T06:04:04;64.97;;;25.25;;
35675;SDS011;21790;42.668;23.298;2022-11-14T06:06:30;68.15;;;25.17;;
35675;SDS011;21790;42.668;23.298;2022-11-14T06:08:55;63.72;;;25.30;;
35675;SDS011;21790;42.668;23.298;2022-11-14T06:11:21;56.58;;;22.88;;
35675;SDS011;21790;42.668;23.298;2022-11-14T06:13:47;62.85;;;23.98;;
35675;SDS011;21790;42.668;23.298;2022-11-14T06:16:17;64.10;;;23.80;;
35675;SDS011;21790;42.668;23.298;2022-11-14T06:18:44;72.13;;;23.95;;
35675;SDS011;21790;42.668;23.298;2022-11-14T06:21:11;66.63;;;26.00;;
35675;SDS011;21790;42.668;23.298;2022-11-14T06:23:37;66.30;;;24.73;;
35675;SDS011;21790;42.668;23.298;2022-11-14T06:26:04;60.33;;;23.75;;
35675;SDS011;21790;42.668;23.298;2022-11-14T06:28:32;57.88;;;23.15;;
35675;SDS011;21790;42.668;23.298;2022-11-14T06:30:58;68.78;;;22.90;;
35675;SDS011;21790;42.668;23.298;2022-11-14T06:33:26;55.47;;;22.30;;
35675;SDS011;21790;42.668;23.298;2022-11-14T06:35:59;62.38;;;22.83;;
35675;SDS011;21790;42.668;23.298;2022-11-14T06:38:26;60.92;;;22.13;;
35675;SDS011;21790;42.668;23.298;2022-11-14T06:40:52;68.47;;;24.42;;
35675;SDS011;21790;42.668;23.298;2022-11-14T06:43:25;65.40;;;23.17;;
35675;SDS011;21790;42.668;23.298;2022-11-14T06:45:52;57.95;;;23.73;;
35675;SDS011;21790;42.668;23.298;2022-11-14T06:48:19;62.97;;;25.20;;
35675;SDS011;21790;42.668;23.298;2022-11-14T06:50:49;67.60;;;24.15;;
35675;SDS011;21790;42.668;23.298;2022-11-14T06:53:16;67.28;;;22.73;;
35675;SDS011;21790;42.668;23.298;2022-11-14T06:55:41;57.13;;;23.27;;
35675;SDS011;21790;42.668;23.298;2022-11-14T06:58:07;59.20;;;22.05;;
35675;SDS011;21790;42.668;23.298;2022-11-14T07:00:33;56.63;;;23.52;;
35675;SDS011;21790;42.668;23.298;2022-11-14T07:02:58;57.33;;;21.30;;
35675;SDS011;21790;42.668;23.298;2022-11-14T07:05:24;68.43;;;24.67;;
35675;SDS011;21790;42.668;23.298;2022-11-14T07:07:50;66.80;;;23.23;;
35675;SDS011;21790;42.668;23.298;2022-11-14T07:10:15;58.10;;;23.30;;
35675;SDS011;21790;42.668;23.298;2022-11-14T07:12:41;56.63;;;23.05;;
35675;SDS011;21790;42.668;23.298;2022-11-14T07:15:07;60.75;;;21.75;;
35675;SDS011;21790;42.668;23.298;2022-11-14T07:17:33;62.78;;;21.80;;
35675;SDS011;21790;42.668;23.298;2022-11-14T07:20:00;61.20;;;23.13;;
35675;SDS011;21790;42.668;23.298;2022-11-14T07:22:26;60.90;;;23.40;;
35675;SDS011;21790;42.668;23.298;2022-11-14T07:24:52;63.88;;;24.48;;
35675;SDS011;21790;42.668;23.298;2022-11-14T07:27:17;61.38;;;24.80;;
35675;SDS011;21790;42.668;23.298;2022-11-14T07:29:43;61.88;;;23.60;;
35675;SDS011;21790;42.668;23.298;2022-11-14T07:32:09;69.45;;;25.02;;
35675;SDS011;21790;42.668;23.298;2022-11-14T07:34:34;60.10;;;24.63;;
35675;SDS011;21790;42.668;23.298;2022-11-14T07:37:00;67.57;;;25.77;;
35675;SDS011;21790;42.668;23.298;2022-11-14T07:39:25;72.20;;;26.05;;
35675;SDS011;21790;42.668;23.298;2022-11-14T07:41:51;72.57;;;26.42;;
35675;SDS011;21790;42.668;23.298;2022-11-14T07:44:17;60.63;;;23.50;;
35675;SDS011;21790;42.668;23.298;2022-11-14T07:46:42;66.60;;;23.02;;
35675;SDS011;21790;42.668;23.298;2022-11-14T07:49:08;62.47;;;25.00;;
35675;SDS011;21790;42.668;23.298;2022-11-14T07:51:34;62.35;;;24.77;;
35675;SDS011;21790;42.668;23.298;2022-11-14T07:54:00;67.63;;;24.50;;
35675;SDS011;21790;42.668;23.298;2022-11-14T07:56:25;67.95;;;24.92;;
35675;SDS011;21790;42.668;23.298;2022-11-14T07:58:52;75.60;;;26.02;;
35675;SDS011;21790;42.668;23.298;2022-11-14T08:01:18;69.53;;;26.15;;
35675;SDS011;21790;42.668;23.298;2022-11-14T08:03:43;70.03;;;25.33;;
35675;SDS011;21790;42.668;23.298;2022-11-14T08:06:10;69.70;;;22.80;;
35675;SDS011;21790;42.668;23.298;2022-11-14T08:08:37;68.15;;;25.33;;
35675;SDS011;21790;42.668;23.298;2022-11-14T08:11:03;71.63;;;25.67;;
35675;SDS011;21790;42.668;23.298;2022-11-14T08:13:29;62.75;;;25.60;;
35675;SDS011;21790;42.668;23.298;2022-11-14T08:15:56;75.63;;;27.13;;
35675;SDS011;21790;42.668;23.298;2022-11-14T08:18:22;80.95;;;28.40;;
35675;SDS011;21790;42.668;23.298;2022-11-14T08:20:47;71.25;;;28.25;;
35675;SDS011;21790;42.668;23.298;2022-11-14T08:23:13;72.60;;;28.73;;
35675;SDS011;21790;42.668;23.298;2022-11-14T08:25:39;71.75;;;27.92;;
35675;SDS011;21790;42.668;23.298;2022-11-14T08:28:05;86.32;;;31.02;;
35675;SDS011;21790;42.668;23.298;2022-11-14T08:30:32;75.07;;;27.35;;
35675;SDS011;21790;42.668;23.298;2022-11-14T08:33:00;79.85;;;27.92;;
35675;SDS011;21790;42.668;23.298;2022-11-14T08:35:27;73.45;;;28.70;;
35675;SDS011;21790;42.668;23.298;2022-11-14T08:37:53;89.47;;;32.25;;
35675;SDS011;21790;42.668;23.298;2022-11-14T08:40:19;80.57;;;28.52;;
35675;SDS011;21790;42.668;23.298;2022-11-14T08:42:44;81.60;;;29.67;;
35675;SDS011;21790;42.668;23.298;2022-11-14T08:45:10;82.05;;;29.73;;
35675;SDS011;21790;42.668;23.298;2022-11-14T08:50:11;80.00;;;29.90;;
35675;SDS011;21790;42.668;23.298;2022-11-14T08:52:37;76.03;;;28.98;;
35675;SDS011;21790;42.668;23.298;2022-11-14T08:55:03;84.68;;;29.27;;
35675;SDS011;21790;42.668;23.298;2022-11-14T08:57:29;77.75;;;28.02;;
35675;SDS011;21790;42.668;23.298;2022-11-14T08:59:55;81.55;;;31.38;;
35675;SDS011;21790;42.668;23.298;2022-11-14T09:02:21;73.60;;;29.30;;
35675;SDS011;21790;42.668;23.298;2022-11-14T09:04:47;87.70;;;31.55;;
35675;SDS011;21790;42.668;23.298;2022-11-14T09:07:13;83.90;;;29.75;;
35675;SDS011;21790;42.668;23.298;2022-11-14T09:12:11;84.00;;;32.55;;
35675;SDS011;21790;42.668;23.298;2022-11-14T09:14:37;85.82;;;32.15;;
35675;SDS011;21790;42.668;23.298;2022-11-14T09:17:03;83.68;;;32.10;;
35675;SDS011;21790;42.668;23.298;2022-11-14T09:19:30;80.80;;;32.97;;
35675;SDS011;21790;42.668;23.298;2022-11-14T09:22:00;92.00;;;32.53;;
35675;SDS011;21790;42.668;23.298;2022-11-14T09:24:25;86.72;;;32.85;;
35675;SDS011;21790;42.668;23.298;2022-11-14T09:26:51;84.90;;;33.63;;
35675;SDS011;21790;42.668;23.298;2022-11-14T09:36:35;90.05;;;32.15;;
35675;SDS011;21790;42.668;23.298;2022-11-14T09:39:01;81.53;;;33.65;;
35675;SDS011;21790;42.668;23.298;2022-11-14T16:42:02;84.97;;;34.30;;
35675;SDS011;21790;42.668;23.298;2022-11-14T18:00:20;96.97;;;38.60;;
35675;SDS011;21790;42.668;23.298;2022-11-14T18:02:46;104.32;;;38.88;;
35675;SDS011;21790;42.668;23.298;2022-11-14T18:05:12;95.10;;;37.58;;
35675;SDS011;21790;42.668;23.298;2022-11-14T18:07:41;91.82;;;39.20;;
35675;SDS011;21790;42.668;23.298;2022-11-14T18:10:06;111.82;;;39.40;;
35675;SDS011;21790;42.668;23.298;2022-11-14T18:12:33;97.00;;;38.85;;
35675;SDS011;21790;42.668;23.298;2022-11-14T18:14:58;106.35;;;37.97;;
35675;SDS011;21790;42.668;23.298;2022-11-14T18:17:24;83.20;;;34.15;;
35675;SDS011;21790;42.668;23.298;2022-11-14T18:19:52;80.45;;;32.95;;
35675;SDS011;21790;42.668;23.298;2022-11-14T18:22:25;90.28;;;34.55;;
35675;SDS011;21790;42.668;23.298;2022-11-14T18:24:52;88.18;;;36.35;;
35675;SDS011;21790;42.668;23.298;2022-11-14T18:27:18;87.32;;;35.38;;
35675;SDS011;21790;42.668;23.298;2022-11-14T18:29:45;86.20;;;36.58;;
35675;SDS011;21790;42.668;23.298;2022-11-14T18:32:10;96.05;;;36.40;;
35675;SDS011;21790;42.668;23.298;2022-11-14T18:34:36;83.63;;;35.35;;
35675;SDS011;21790;42.668;23.298;2022-11-14T18:37:02;87.68;;;36.00;;
35675;SDS011;21790;42.668;23.298;2022-11-14T18:39:28;81.43;;;33.38;;
35675;SDS011;21790;42.668;23.298;2022-11-14T18:41:54;103.78;;;35.75;;
35675;SDS011;21790;42.668;23.298;2022-11-14T18:44:21;97.97;;;37.38;;
35675;SDS011;21790;42.668;23.298;2022-11-14T18:46:48;86.68;;;34.53;;
35675;SDS011;21790;42.668;23.298;2022-11-14T18:49:14;89.97;;;34.33;;
35675;SDS011;21790;42.668;23.298;2022-11-14T18:51:40;79.50;;;33.72;;
35675;SDS011;21790;42.668;23.298;2022-11-14T18:54:09;84.65;;;32.28;;
35675;SDS011;21790;42.668;23.298;2022-11-14T18:56:36;89.82;;;32.65;;
35675;SDS011;21790;42.668;23.298;2022-11-14T18:59:03;68.60;;;29.63;;
35675;SDS011;21790;42.668;23.298;2022-11-14T19:01:29;81.75;;;32.55;;
35675;SDS011;21790;42.668;23.298;2022-11-14T19:03:56;75.95;;;31.52;;
35675;SDS011;21790;42.668;23.298;2022-11-14T19:06:24;77.43;;;32.00;;
35675;SDS011;21790;42.668;23.298;2022-11-14T19:08:54;93.50;;;34.53;;
35675;SDS011;21790;42.668;23.298;2022-11-14T19:11:23;75.78;;;32.33;;
35675;SDS011;21790;42.668;23.298;2022-11-14T19:14:07;77.70;;;31.60;;
35675;SDS011;21790;42.668;23.298;2022-11-14T19:16:33;83.40;;;33.63;;
35675;SDS011;21790;42.668;23.298;2022-11-14T19:19:00;77.57;;;31.27;;
35675;SDS011;21790;42.668;23.298;2022-11-14T19:21:26;78.53;;;32.22;;
35675;SDS011;21790;42.668;23.298;2022-11-14T19:23:52;84.10;;;31.85;;
35675;SDS011;21790;42.668;23.298;2022-11-14T19:26:19;69.78;;;30.50;;
35675;SDS011;21790;42.668;23.298;2022-11-14T19:28:45;76.45;;;28.50;;
35675;SDS011;21790;42.668;23.298;2022-11-14T19:31:12;89.78;;;31.08;;
35675;SDS011;21790;42.668;23.298;2022-11-14T19:33:38;84.35;;;29.20;;
35675;SDS011;21790;42.668;23.298;2022-11-14T19:36:05;72.40;;;28.30;;
35675;SDS011;21790;42.668;23.298;2022-11-14T19:38:54;72.53;;;31.60;;
35675;SDS011;21790;42.668;23.298;2022-11-14T19:41:22;61.88;;;28.85;;
35675;SDS011;21790;42.668;23.298;2022-11-14T19:43:55;78.57;;;29.55;;
35675;SDS011;21790;42.668;23.298;2022-11-14T19:46:22;68.35;;;28.95;;
35675;SDS011;21790;42.668;23.298;2022-11-14T19:48:58;81.03;;;29.48;;
35675;SDS011;21790;42.668;23.298;2022-11-14T19:51:25;76.30;;;29.50;;
35675;SDS011;21790;42.668;23.298;2022-11-14T19:53:53;63.97;;;28.38;;
35675;SDS011;21790;42.668;23.298;2022-11-14T19:56:20;67.30;;;27.13;;
35675;SDS011;21790;42.668;23.298;2022-11-14T19:58:47;62.05;;;26.27;;
35675;SDS011;21790;42.668;23.298;2022-11-14T20:01:17;63.85;;;26.02;;
35675;SDS011;21790;42.668;23.298;2022-11-14T20:03:49;63.08;;;27.20;;
35675;SDS011;21790;42.668;23.298;2022-11-14T20:06:33;60.72;;;28.25;;
35675;SDS011;21790;42.668;23.298;2022-11-14T20:09:01;60.53;;;27.55;;
35675;SDS011;21790;42.668;23.298;2022-11-14T20:11:30;63.75;;;26.15;;
35675;SDS011;21790;42.668;23.298;2022-11-14T20:13:56;62.78;;;26.65;;
35675;SDS011;21790;42.668;23.298;2022-11-14T20:16:24;62.80;;;26.58;;
35675;SDS011;21790;42.668;23.298;2022-11-14T20:18:54;66.10;;;28.23;;
35675;SDS011;21790;42.668;23.298;2022-11-14T20:21:21;71.20;;;28.17;;
35675;SDS011;21790;42.668;23.298;2022-11-14T20:23:48;70.15;;;25.48;;
35675;SDS011;21790;42.668;23.298;2022-11-14T20:26:14;63.60;;;25.80;;
35675;SDS011;21790;42.668;23.298;2022-11-14T20:28:41;67.53;;;27.20;;
35675;SDS011;21790;42.668;23.298;2022-11-14T20:31:12;59.97;;;27.33;;
35675;SDS011;21790;42.668;23.298;2022-11-14T20:33:46;68.03;;;27.33;;
35675;SDS011;21790;42.668;23.298;2022-11-14T20:36:15;70.28;;;27.85;;
35675;SDS011;21790;42.668;23.298;2022-11-14T20:38:42;68.38;;;27.67;;
35675;SDS011;21790;42.668;23.298;2022-11-14T20:41:09;74.90;;;30.42;;
35675;SDS011;21790;42.668;23.298;2022-11-14T20:43:36;67.75;;;27.05;;
35675;SDS011;21790;42.668;23.298;2022-11-14T20:46:03;71.53;;;28.00;;
35675;SDS011;21790;42.668;23.298;2022-11-14T20:48:40;72.68;;;29.35;;
35675;SDS011;21790;42.668;23.298;2022-11-14T20:51:06;73.15;;;29.65;;
35675;SDS011;21790;42.668;23.298;2022-11-14T20:53:36;65.65;;;28.65;;
35675;SDS011;21790;42.668;23.298;2022-11-14T20:56:02;71.28;;;30.45;;
35675;SDS011;21790;42.668;23.298;2022-11-14T20:58:28;77.03;;;30.63;;
35675;SDS011;21790;42.668;23.298;2022-11-14T21:00:55;70.07;;;29.70;;
35675;SDS011;21790;42.668;23.298;2022-11-14T21:03:21;71.60;;;31.58;;
35675;SDS011;21790;42.668;23.298;2022-11-14T21:05:47;61.92;;;28.73;;
35675;SDS011;21790;42.668;23.298;2022-11-14T21:08:13;76.50;;;30.60;;
35675;SDS011;21790;42.668;23.298;2022-11-14T21:10:41;76.50;;;29.83;;
35675;SDS011;21790;42.668;23.298;2022-11-14T21:13:12;66.40;;;30.58;;
35675;SDS011;21790;42.668;23.298;2022-11-14T21:15:58;80.80;;;30.48;;
35675;SDS011;21790;42.668;23.298;2022-11-14T21:18:24;68.57;;;26.50;;
35675;SDS011;21790;42.668;23.298;2022-11-14T21:21:01;59.45;;;25.25;;
35675;SDS011;21790;42.668;23.298;2022-11-14T21:23:28;67.43;;;26.15;;
35675;SDS011;21790;42.668;23.298;2022-11-14T21:28:31;66.28;;;29.30;;
35675;SDS011;21790;42.668;23.298;2022-11-14T21:30:58;63.03;;;27.05;;
35675;SDS011;21790;42.668;23.298;2022-11-14T21:33:27;65.60;;;27.70;;
35675;SDS011;21790;42.668;23.298;2022-11-14T21:35:54;60.45;;;27.38;;
35675;SDS011;21790;42.668;23.298;2022-11-14T21:38:22;63.05;;;26.77;;
35675;SDS011;21790;42.668;23.298;2022-11-14T21:40:53;63.05;;;26.10;;
35675;SDS011;21790;42.668;23.298;2022-11-14T21:45:53;62.40;;;25.33;;
35675;SDS011;21790;42.668;23.298;2022-11-14T21:48:24;59.25;;;25.90;;
35675;SDS011;21790;42.668;23.298;2022-11-14T21:50:50;68.88;;;26.83;;
35675;SDS011;21790;42.668;23.298;2022-11-14T21:53:17;67.25;;;26.45;;
35675;SDS011;21790;42.668;23.298;2022-11-14T21:55:43;62.42;;;25.50;;
35675;SDS011;21790;42.668;23.298;2022-11-14T21:58:09;67.38;;;25.33;;
35675;SDS011;21790;42.668;23.298;2022-11-14T22:00:39;58.33;;;24.65;;
35675;SDS011;21790;42.668;23.298;2022-11-14T22:03:05;57.33;;;23.92;;
35675;SDS011;21790;42.668;23.298;2022-11-14T22:05:56;55.08;;;24.10;;
35675;SDS011;21790;42.668;23.298;2022-11-14T22:08:22;59.15;;;23.27;;
35675;SDS011;21790;42.668;23.298;2022-11-14T22:10:47;46.40;;;22.05;;
35675;SDS011;21790;42.668;23.298;2022-11-14T22:13:13;56.08;;;23.02;;
35675;SDS011;21790;42.668;23.298;2022-11-14T22:15:38;58.65;;;24.08;;
35675;SDS011;21790;42.668;23.298;2022-11-14T22:18:04;51.90;;;22.70;;
35675;SDS011;21790;42.668;23.298;2022-11-14T22:20:29;51.50;;;21.08;;
35675;SDS011;21790;42.668;23.298;2022-11-14T22:22:55;47.42;;;23.67;;
35675;SDS011;21790;42.668;23.298;2022-11-14T22:25:20;62.92;;;24.60;;
35675;SDS011;21790;42.668;23.298;2022-11-14T22:27:46;53.95;;;24.85;;
35675;SDS011;21790;42.668;23.298;2022-11-14T22:30:12;52.53;;;23.58;;
35675;SDS011;21790;42.668;23.298;2022-11-14T22:32:38;55.00;;;24.23;;
35675;SDS011;21790;42.668;23.298;2022-11-14T22:35:03;54.95;;;23.70;;
35675;SDS011;21790;42.668;23.298;2022-11-14T22:37:31;61.15;;;23.73;;
35675;SDS011;21790;42.668;23.298;2022-11-14T22:39:56;56.40;;;24.05;;
35675;SDS011;21790;42.668;23.298;2022-11-14T22:42:22;55.85;;;23.27;;
35675;SDS011;21790;42.668;23.298;2022-11-14T22:44:49;52.00;;;22.48;;
35675;SDS011;21790;42.668;23.298;2022-11-14T22:47:15;58.40;;;23.45;;
35675;SDS011;21790;42.668;23.298;2022-11-14T22:49:40;54.08;;;23.45;;
35675;SDS011;21790;42.668;23.298;2022-11-14T22:52:06;62.53;;;25.02;;
35675;SDS011;21790;42.668;23.298;2022-11-14T22:54:31;53.95;;;22.83;;
35675;SDS011;21790;42.668;23.298;2022-11-14T22:56:57;56.25;;;22.88;;
35675;SDS011;21790;42.668;23.298;2022-11-14T22:59:23;55.78;;;23.52;;
35675;SDS011;21790;42.668;23.298;2022-11-14T23:01:48;67.78;;;23.98;;
35675;SDS011;21790;42.668;23.298;2022-11-14T23:04:13;56.00;;;22.42;;
35675;SDS011;21790;42.668;23.298;2022-11-14T23:06:39;54.95;;;22.40;;
35675;SDS011;21790;42.668;23.298;2022-11-14T23:09:05;52.95;;;22.67;;
35675;SDS011;21790;42.668;23.298;2022-11-14T23:11:30;48.38;;;22.45;;
35675;SDS011;21790;42.668;23.298;2022-11-14T23:13:57;52.60;;;23.33;;
35675;SDS011;21790;42.668;23.298;2022-11-14T23:16:25;57.88;;;25.48;;
35675;SDS011;21790;42.668;23.298;2022-11-14T23:18:53;57.40;;;25.85;;
35675;SDS011;21790;42.668;23.298;2022-11-14T23:21:24;73.80;;;27.98;;
35675;SDS011;21790;42.668;23.298;2022-11-14T23:23:55;68.57;;;28.25;;
35675;SDS011;21790;42.668;23.298;2022-11-14T23:26:22;65.60;;;27.38;;
35675;SDS011;21790;42.668;23.298;2022-11-14T23:28:49;55.33;;;25.35;;
35675;SDS011;21790;42.668;23.298;2022-11-14T23:31:14;60.45;;;25.70;;
35675;SDS011;21790;42.668;23.298;2022-11-14T23:33:46;64.95;;;25.63;;
35675;SDS011;21790;42.668;23.298;2022-11-14T23:36:13;57.72;;;26.92;;
35675;SDS011;21790;42.668;23.298;2022-11-14T23:38:39;53.10;;;24.23;;
35675;SDS011;21790;42.668;23.298;2022-11-14T23:41:05;68.50;;;27.48;;
35675;SDS011;21790;42.668;23.298;2022-11-14T23:43:31;75.22;;;27.67;;
35675;SDS011;21790;42.668;23.298;2022-11-14T23:45:56;61.33;;;26.30;;
35675;SDS011;21790;42.668;23.298;2022-11-14T23:48:22;63.58;;;26.02;;
35675;SDS011;21790;42.668;23.298;2022-11-14T23:50:51;52.50;;;23.40;;
35675;SDS011;21790;42.668;23.298;2022-11-14T23:53:18;59.92;;;25.30;;
35675;SDS011;21790;42.668;23.298;2022-11-14T23:55:54;61.30;;;24.77;;
35675;SDS011;21790;42.668;23.298;2022-11-14T23:58:21;61.42;;;26.13;;
